sensor_id;sensor_type;location;lat;lon;timestamp;pressure;altitude;pressure_sealevel;temperature;humidity
22550;BME280;11441;57.164;-2.120;2023-06-14T00:02:12;101577.31;;;16.75;100.00
22550;BME280;11441;57.164;-2.120;2023-06-14T00:04:39;101580.72;;;16.65;100.00
22550;BME280;11441;57.164;-2.120;2023-06-14T00:07:08;101574.16;;;16.50;100.00
22550;BME280;11441;57.164;-2.120;2023-06-14T00:09:37;101571.03;;;16.55;100.00
22550;BME280;11441;57.164;-2.120;2023-06-14T00:12:05;101573.09;;;16.58;100.00
22550;BME280;11441;57.164;-2.120;2023-06-14T00:14:33;101575.81;;;16.55;100.00
22550;BME280;11441;57.164;-2.120;2023-06-14T00:17:18;101577.94;;;16.65;100.00
22550;BME280;11441;57.164;-2.120;2023-06-14T00:19:46;101584.72;;;16.68;100.00
22550;BME280;11441;57.164;-2.120;2023-06-14T00:22:13;101590.00;;;16.76;100.00
22550;BME280;11441;57.164;-2.120;2023-06-14T00:24:40;101580.63;;;16.58;100.00
22550;BME280;11441;57.164;-2.120;2023-06-14T00:27:07;101586.94;;;16.55;100.00
22550;BME280;11441;57.164;-2.120;2023-06-14T00:29:34;101593.81;;;16.65;100.00
22550;BME280;11441;57.164;-2.120;2023-06-14T00:32:03;101591.09;;;16.68;100.00
22550;BME280;11441;57.164;-2.120;2023-06-14T00:34:30;101593.44;;;16.66;100.00
22550;BME280;11441;57.164;-2.120;2023-06-14T00:36:57;101593.13;;;16.71;100.00
22550;BME280;11441;57.164;-2.120;2023-06-14T00:39:42;101594.16;;;16.86;100.00
22550;BME280;11441;57.164;-2.120;2023-06-14T00:42:09;101590.38;;;16.75;100.00
22550;BME280;11441;57.164;-2.120;2023-06-14T00:44:36;101598.59;;;16.64;100.00
22550;BME280;11441;57.164;-2.120;2023-06-14T00:47:03;101603.72;;;16.62;100.00
22550;BME280;11441;57.164;-2.120;2023-06-14T00:49:31;101582.16;;;16.55;100.00
22550;BME280;11441;57.164;-2.120;2023-06-14T00:51:58;101595.00;;;16.64;100.00
22550;BME280;11441;57.164;-2.120;2023-06-14T00:54:24;101594.25;;;16.67;100.00
22550;BME280;11441;57.164;-2.120;2023-06-14T00:56:52;101593.91;;;16.72;100.00
22550;BME280;11441;57.164;-2.120;2023-06-14T00:59:18;101594.31;;;16.70;100.00
22550;BME280;11441;57.164;-2.120;2023-06-14T01:01:46;101598.25;;;16.69;100.00
22550;BME280;11441;57.164;-2.120;2023-06-14T01:04:13;101599.75;;;16.63;100.00
22550;BME280;11441;57.164;-2.120;2023-06-14T01:08:01;101601.69;;;16.59;100.00
22550;BME280;11441;57.164;-2.120;2023-06-14T01:10:06;101597.69;;;16.56;100.00
22550;BME280;11441;57.164;-2.120;2023-06-14T01:15:23;101598.91;;;16.59;100.00
22550;BME280;11441;57.164;-2.120;2023-06-14T01:17:50;101601.25;;;16.57;100.00
22550;BME280;11441;57.164;-2.120;2023-06-14T01:20:21;101594.97;;;16.60;100.00
22550;BME280;11441;57.164;-2.120;2023-06-14T01:23:05;101599.50;;;16.45;100.00
22550;BME280;11441;57.164;-2.120;2023-06-14T01:25:32;101592.50;;;16.55;100.00
22550;BME280;11441;57.164;-2.120;2023-06-14T01:28:03;101597.22;;;16.54;100.00
22550;BME280;11441;57.164;-2.120;2023-06-14T01:30:31;101595.69;;;16.57;100.00
22550;BME280;11441;57.164;-2.120;2023-06-14T01:33:00;101595.19;;;16.48;100.00
22550;BME280;11441;57.164;-2.120;2023-06-14T01:35:51;101599.13;;;16.47;100.00
22550;BME280;11441;57.164;-2.120;2023-06-14T01:38:24;101589.97;;;16.46;100.00
22550;BME280;11441;57.164;-2.120;2023-06-14T01:41:10;101598.09;;;16.32;100.00
22550;BME280;11441;57.164;-2.120;2023-06-14T01:43:38;101582.53;;;16.27;100.00
22550;BME280;11441;57.164;-2.120;2023-06-14T01:46:06;101586.56;;;16.07;100.00
22550;BME280;11441;57.164;-2.120;2023-06-14T01:48:34;101583.72;;;16.03;100.00
22550;BME280;11441;57.164;-2.120;2023-06-14T01:51:02;101587.41;;;16.11;100.00
22550;BME280;11441;57.164;-2.120;2023-06-14T01:53:29;101581.91;;;16.14;100.00
22550;BME280;11441;57.164;-2.120;2023-06-14T01:55:56;101588.25;;;16.11;100.00
22550;BME280;11441;57.164;-2.120;2023-06-14T01:58:23;101579.09;;;16.11;100.00
22550;BME280;11441;57.164;-2.120;2023-06-14T02:00:51;101586.63;;;16.10;100.00
22550;BME280;11441;57.164;-2.120;2023-06-14T02:03:17;101590.97;;;16.08;100.00
22550;BME280;11441;57.164;-2.120;2023-06-14T02:05:46;101588.13;;;16.04;100.00
22550;BME280;11441;57.164;-2.120;2023-06-14T02:08:13;101583.66;;;15.99;100.00
22550;BME280;11441;57.164;-2.120;2023-06-14T02:10:40;101582.00;;;15.95;100.00
22550;BME280;11441;57.164;-2.120;2023-06-14T02:13:07;101581.94;;;15.91;100.00
22550;BME280;11441;57.164;-2.120;2023-06-14T02:15:34;101582.06;;;15.98;100.00
22550;BME280;11441;57.164;-2.120;2023-06-14T02:18:03;101578.72;;;15.89;100.00
22550;BME280;11441;57.164;-2.120;2023-06-14T02:20:32;101580.47;;;15.97;100.00
22550;BME280;11441;57.164;-2.120;2023-06-14T02:23:00;101575.72;;;15.98;100.00
22550;BME280;11441;57.164;-2.120;2023-06-14T02:25:27;101575.22;;;15.92;100.00
22550;BME280;11441;57.164;-2.120;2023-06-14T02:27:55;101582.81;;;15.95;100.00
22550;BME280;11441;57.164;-2.120;2023-06-14T02:30:40;101583.56;;;15.92;100.00
22550;BME280;11441;57.164;-2.120;2023-06-14T02:33:08;101579.53;;;15.90;100.00
22550;BME280;11441;57.164;-2.120;2023-06-14T02:35:35;101582.00;;;15.95;100.00
22550;BME280;11441;57.164;-2.120;2023-06-14T02:38:01;101581.16;;;15.91;100.00
22550;BME280;11441;57.164;-2.120;2023-06-14T02:40:47;101580.03;;;15.95;100.00
22550;BME280;11441;57.164;-2.120;2023-06-14T02:43:14;101583.56;;;15.92;100.00
22550;BME280;11441;57.164;-2.120;2023-06-14T02:45:44;101579.09;;;15.88;100.00
22550;BME280;11441;57.164;-2.120;2023-06-14T02:48:10;101580.19;;;15.83;100.00
22550;BME280;11441;57.164;-2.120;2023-06-14T02:51:15;101583.88;;;15.87;100.00
22550;BME280;11441;57.164;-2.120;2023-06-14T02:53:41;101581.88;;;15.88;100.00
22550;BME280;11441;57.164;-2.120;2023-06-14T02:56:10;101578.44;;;15.94;100.00
22550;BME280;11441;57.164;-2.120;2023-06-14T02:58:38;101576.38;;;15.91;100.00
22550;BME280;11441;57.164;-2.120;2023-06-14T03:01:06;101572.94;;;15.98;100.00
22550;BME280;11441;57.164;-2.120;2023-06-14T03:03:34;101568.78;;;15.88;100.00
22550;BME280;11441;57.164;-2.120;2023-06-14T03:06:01;101575.34;;;15.99;100.00
22550;BME280;11441;57.164;-2.120;2023-06-14T03:08:52;101578.13;;;15.99;100.00
22550;BME280;11441;57.164;-2.120;2023-06-14T03:14:27;101584.34;;;15.93;100.00
22550;BME280;11441;57.164;-2.120;2023-06-14T03:16:56;101582.16;;;16.06;100.00
22550;BME280;11441;57.164;-2.120;2023-06-14T03:19:23;101581.31;;;16.01;100.00
22550;BME280;11441;57.164;-2.120;2023-06-14T03:21:53;101581.25;;;15.98;100.00
22550;BME280;11441;57.164;-2.120;2023-06-14T03:24:25;101579.03;;;15.84;100.00
22550;BME280;11441;57.164;-2.120;2023-06-14T03:26:57;101570.72;;;15.84;100.00
22550;BME280;11441;57.164;-2.120;2023-06-14T03:29:26;101574.97;;;15.78;100.00
22550;BME280;11441;57.164;-2.120;2023-06-14T03:31:59;101568.09;;;15.72;100.00
22550;BME280;11441;57.164;-2.120;2023-06-14T03:34:34;101568.88;;;15.72;100.00
22550;BME280;11441;57.164;-2.120;2023-06-14T03:37:02;101579.19;;;15.72;100.00
22550;BME280;11441;57.164;-2.120;2023-06-14T03:39:29;101572.72;;;15.64;100.00
22550;BME280;11441;57.164;-2.120;2023-06-14T03:41:56;101575.63;;;15.71;100.00
22550;BME280;11441;57.164;-2.120;2023-06-14T03:44:23;101566.28;;;15.60;100.00
22550;BME280;11441;57.164;-2.120;2023-06-14T03:46:50;101573.16;;;15.66;100.00
22550;BME280;11441;57.164;-2.120;2023-06-14T03:49:18;101577.44;;;15.63;100.00
22550;BME280;11441;57.164;-2.120;2023-06-14T03:52:04;101584.13;;;15.59;100.00
22550;BME280;11441;57.164;-2.120;2023-06-14T03:54:34;101587.19;;;15.54;100.00
22550;BME280;11441;57.164;-2.120;2023-06-14T03:57:04;101588.56;;;15.63;100.00
22550;BME280;11441;57.164;-2.120;2023-06-14T03:59:31;101589.44;;;15.68;100.00
22550;BME280;11441;57.164;-2.120;2023-06-14T04:01:58;101589.75;;;15.62;100.00
22550;BME280;11441;57.164;-2.120;2023-06-14T04:04:25;101597.19;;;15.58;100.00
22550;BME280;11441;57.164;-2.120;2023-06-14T04:06:56;101590.16;;;15.64;100.00
22550;BME280;11441;57.164;-2.120;2023-06-14T04:09:26;101595.94;;;15.75;100.00
22550;BME280;11441;57.164;-2.120;2023-06-14T04:11:53;101585.16;;;15.74;100.00
22550;BME280;11441;57.164;-2.120;2023-06-14T04:14:20;101607.47;;;15.77;100.00
22550;BME280;11441;57.164;-2.120;2023-06-14T04:16:48;101594.47;;;15.81;100.00
22550;BME280;11441;57.164;-2.120;2023-06-14T04:19:17;101594.34;;;15.55;100.00
22550;BME280;11441;57.164;-2.120;2023-06-14T04:21:45;101592.06;;;15.60;100.00
22550;BME280;11441;57.164;-2.120;2023-06-14T04:24:13;101591.81;;;15.69;100.00
22550;BME280;11441;57.164;-2.120;2023-06-14T04:26:44;101599.78;;;15.71;100.00
22550;BME280;11441;57.164;-2.120;2023-06-14T04:29:14;101586.34;;;15.73;100.00
22550;BME280;11441;57.164;-2.120;2023-06-14T04:31:46;101596.13;;;15.86;100.00
22550;BME280;11441;57.164;-2.120;2023-06-14T04:34:14;101595.22;;;15.78;100.00
22550;BME280;11441;57.164;-2.120;2023-06-14T04:36:49;101596.19;;;15.90;100.00
22550;BME280;11441;57.164;-2.120;2023-06-14T04:39:16;101591.16;;;15.95;100.00
22550;BME280;11441;57.164;-2.120;2023-06-14T04:41:46;101596.38;;;16.00;100.00
22550;BME280;11441;57.164;-2.120;2023-06-14T04:44:32;101589.53;;;15.94;100.00
22550;BME280;11441;57.164;-2.120;2023-06-14T04:47:01;101585.19;;;15.97;100.00
22550;BME280;11441;57.164;-2.120;2023-06-14T04:49:28;101603.59;;;16.05;100.00
22550;BME280;11441;57.164;-2.120;2023-06-14T04:51:59;101601.69;;;16.09;100.00
22550;BME280;11441;57.164;-2.120;2023-06-14T04:54:37;101598.47;;;16.07;100.00
22550;BME280;11441;57.164;-2.120;2023-06-14T04:57:08;101600.44;;;16.30;100.00
22550;BME280;11441;57.164;-2.120;2023-06-14T04:59:35;101603.47;;;16.21;100.00
22550;BME280;11441;57.164;-2.120;2023-06-14T05:02:03;101605.94;;;16.26;100.00
22550;BME280;11441;57.164;-2.120;2023-06-14T05:04:30;101606.94;;;16.37;100.00
22550;BME280;11441;57.164;-2.120;2023-06-14T05:06:58;101611.28;;;16.38;100.00
22550;BME280;11441;57.164;-2.120;2023-06-14T05:09:25;101618.69;;;16.54;100.00
22550;BME280;11441;57.164;-2.120;2023-06-14T05:11:52;101623.63;;;16.64;100.00
22550;BME280;11441;57.164;-2.120;2023-06-14T05:14:20;101628.13;;;16.72;100.00
22550;BME280;11441;57.164;-2.120;2023-06-14T05:17:06;101631.91;;;16.87;100.00
22550;BME280;11441;57.164;-2.120;2023-06-14T05:19:33;101637.16;;;16.92;100.00
22550;BME280;11441;57.164;-2.120;2023-06-14T05:22:00;101640.84;;;17.00;100.00
22550;BME280;11441;57.164;-2.120;2023-06-14T05:24:28;101645.72;;;17.07;100.00
22550;BME280;11441;57.164;-2.120;2023-06-14T05:26:57;101646.50;;;17.07;100.00
22550;BME280;11441;57.164;-2.120;2023-06-14T05:29:43;101643.25;;;17.02;100.00
22550;BME280;11441;57.164;-2.120;2023-06-14T05:32:10;101642.75;;;16.96;100.00
22550;BME280;11441;57.164;-2.120;2023-06-14T05:34:37;101644.75;;;16.95;100.00
22550;BME280;11441;57.164;-2.120;2023-06-14T05:37:04;101641.19;;;16.95;100.00
22550;BME280;11441;57.164;-2.120;2023-06-14T05:39:30;101643.63;;;17.00;100.00
22550;BME280;11441;57.164;-2.120;2023-06-14T05:41:57;101641.31;;;17.06;100.00
22550;BME280;11441;57.164;-2.120;2023-06-14T05:44:24;101643.69;;;17.04;100.00
22550;BME280;11441;57.164;-2.120;2023-06-14T05:46:51;101638.22;;;17.11;100.00
22550;BME280;11441;57.164;-2.120;2023-06-14T05:49:18;101648.69;;;16.94;100.00
22550;BME280;11441;57.164;-2.120;2023-06-14T05:51:45;101644.34;;;16.93;100.00
22550;BME280;11441;57.164;-2.120;2023-06-14T05:54:12;101639.66;;;17.01;100.00
22550;BME280;11441;57.164;-2.120;2023-06-14T05:56:39;101647.03;;;16.86;100.00
22550;BME280;11441;57.164;-2.120;2023-06-14T05:59:24;101640.75;;;16.93;100.00
22550;BME280;11441;57.164;-2.120;2023-06-14T06:01:51;101644.47;;;16.77;100.00
22550;BME280;11441;57.164;-2.120;2023-06-14T06:04:18;101654.03;;;16.80;100.00
22550;BME280;11441;57.164;-2.120;2023-06-14T06:06:45;101646.25;;;16.89;100.00
22550;BME280;11441;57.164;-2.120;2023-06-14T06:09:13;101652.72;;;16.97;100.00
22550;BME280;11441;57.164;-2.120;2023-06-14T06:11:41;101646.00;;;16.98;100.00
22550;BME280;11441;57.164;-2.120;2023-06-14T06:14:19;101651.22;;;17.03;100.00
22550;BME280;11441;57.164;-2.120;2023-06-14T06:16:46;101653.56;;;17.01;100.00
22550;BME280;11441;57.164;-2.120;2023-06-14T06:19:13;101650.84;;;17.05;100.00
22550;BME280;11441;57.164;-2.120;2023-06-14T06:21:40;101652.41;;;17.02;100.00
22550;BME280;11441;57.164;-2.120;2023-06-14T06:24:07;101656.13;;;17.13;100.00
22550;BME280;11441;57.164;-2.120;2023-06-14T06:26:34;101656.66;;;17.23;100.00
22550;BME280;11441;57.164;-2.120;2023-06-14T06:29:01;101648.69;;;17.21;100.00
22550;BME280;11441;57.164;-2.120;2023-06-14T06:31:28;101669.38;;;17.24;100.00
22550;BME280;11441;57.164;-2.120;2023-06-14T06:34:14;101682.56;;;17.27;100.00
22550;BME280;11441;57.164;-2.120;2023-06-14T06:36:41;101675.94;;;17.39;100.00
22550;BME280;11441;57.164;-2.120;2023-06-14T06:39:08;101675.38;;;17.26;100.00
22550;BME280;11441;57.164;-2.120;2023-06-14T06:41:39;101673.03;;;17.28;100.00
22550;BME280;11441;57.164;-2.120;2023-06-14T06:44:07;101672.25;;;17.31;100.00
22550;BME280;11441;57.164;-2.120;2023-06-14T06:46:34;101669.09;;;17.32;100.00
22550;BME280;11441;57.164;-2.120;2023-06-14T06:49:01;101674.00;;;17.43;100.00
22550;BME280;11441;57.164;-2.120;2023-06-14T06:51:28;101672.16;;;17.54;100.00
22550;BME280;11441;57.164;-2.120;2023-06-14T06:53:55;101670.56;;;17.53;100.00
22550;BME280;11441;57.164;-2.120;2023-06-14T06:56:22;101674.69;;;17.66;100.00
22550;BME280;11441;57.164;-2.120;2023-06-14T06:58:50;101672.75;;;17.70;100.00
22550;BME280;11441;57.164;-2.120;2023-06-14T07:01:17;101663.25;;;17.75;100.00
22550;BME280;11441;57.164;-2.120;2023-06-14T07:03:46;101672.56;;;17.90;100.00
22550;BME280;11441;57.164;-2.120;2023-06-14T07:06:32;101672.66;;;17.97;100.00
22550;BME280;11441;57.164;-2.120;2023-06-14T07:08:59;101679.56;;;18.11;100.00
22550;BME280;11441;57.164;-2.120;2023-06-14T07:11:44;101677.69;;;18.22;100.00
22550;BME280;11441;57.164;-2.120;2023-06-14T07:14:12;101674.16;;;18.28;100.00
22550;BME280;11441;57.164;-2.120;2023-06-14T07:16:39;101671.88;;;18.41;100.00
22550;BME280;11441;57.164;-2.120;2023-06-14T07:19:06;101677.97;;;18.58;100.00
22550;BME280;11441;57.164;-2.120;2023-06-14T07:21:33;101676.81;;;18.62;100.00
22550;BME280;11441;57.164;-2.120;2023-06-14T07:24:00;101676.09;;;18.73;100.00
22550;BME280;11441;57.164;-2.120;2023-06-14T07:26:27;101675.03;;;18.84;100.00
22550;BME280;11441;57.164;-2.120;2023-06-14T07:28:54;101676.66;;;18.93;100.00
22550;BME280;11441;57.164;-2.120;2023-06-14T07:31:21;101670.72;;;18.98;100.00
22550;BME280;11441;57.164;-2.120;2023-06-14T07:33:48;101676.72;;;19.03;100.00
22550;BME280;11441;57.164;-2.120;2023-06-14T07:36:15;101679.13;;;19.05;100.00
22550;BME280;11441;57.164;-2.120;2023-06-14T07:38:42;101686.69;;;19.01;100.00
22550;BME280;11441;57.164;-2.120;2023-06-14T07:41:09;101683.56;;;19.17;100.00
22550;BME280;11441;57.164;-2.120;2023-06-14T07:43:35;101674.88;;;19.29;100.00
22550;BME280;11441;57.164;-2.120;2023-06-14T07:46:02;101687.28;;;19.35;100.00
22550;BME280;11441;57.164;-2.120;2023-06-14T07:48:34;101673.34;;;19.50;100.00
22550;BME280;11441;57.164;-2.120;2023-06-14T07:51:01;101673.78;;;19.55;100.00
22550;BME280;11441;57.164;-2.120;2023-06-14T07:53:28;101681.78;;;19.68;100.00
22550;BME280;11441;57.164;-2.120;2023-06-14T07:55:57;101687.44;;;19.75;100.00
22550;BME280;11441;57.164;-2.120;2023-06-14T07:58:24;101691.84;;;19.80;100.00
22550;BME280;11441;57.164;-2.120;2023-06-14T08:00:51;101689.06;;;19.80;100.00
22550;BME280;11441;57.164;-2.120;2023-06-14T08:03:18;101681.44;;;19.76;100.00
22550;BME280;11441;57.164;-2.120;2023-06-14T08:05:46;101687.88;;;19.77;100.00
22550;BME280;11441;57.164;-2.120;2023-06-14T08:08:13;101681.47;;;19.84;100.00
22550;BME280;11441;57.164;-2.120;2023-06-14T08:10:40;101681.91;;;19.89;100.00
22550;BME280;11441;57.164;-2.120;2023-06-14T08:13:25;101687.13;;;20.05;100.00
22550;BME280;11441;57.164;-2.120;2023-06-14T08:15:52;101693.94;;;20.19;100.00
22550;BME280;11441;57.164;-2.120;2023-06-14T08:18:19;101687.53;;;20.25;100.00
22550;BME280;11441;57.164;-2.120;2023-06-14T08:20:46;101694.75;;;20.37;100.00
22550;BME280;11441;57.164;-2.120;2023-06-14T08:23:13;101693.56;;;20.49;100.00
22550;BME280;11441;57.164;-2.120;2023-06-14T08:25:40;101687.97;;;20.74;100.00
22550;BME280;11441;57.164;-2.120;2023-06-14T08:28:07;101691.97;;;20.59;100.00
22550;BME280;11441;57.164;-2.120;2023-06-14T08:30:34;101693.16;;;20.61;100.00
22550;BME280;11441;57.164;-2.120;2023-06-14T08:33:37;101697.59;;;20.66;100.00
22550;BME280;11441;57.164;-2.120;2023-06-14T08:36:06;101694.38;;;20.75;100.00
22550;BME280;11441;57.164;-2.120;2023-06-14T08:38:32;101693.16;;;20.90;100.00
22550;BME280;11441;57.164;-2.120;2023-06-14T08:41:00;101699.16;;;20.88;100.00
22550;BME280;11441;57.164;-2.120;2023-06-14T08:43:27;101694.34;;;20.85;100.00
22550;BME280;11441;57.164;-2.120;2023-06-14T08:45:58;101693.56;;;20.92;100.00
22550;BME280;11441;57.164;-2.120;2023-06-14T08:48:26;101694.34;;;20.96;100.00
22550;BME280;11441;57.164;-2.120;2023-06-14T08:50:59;101698.75;;;20.94;100.00
22550;BME280;11441;57.164;-2.120;2023-06-14T08:53:30;101696.75;;;20.94;100.00
22550;BME280;11441;57.164;-2.120;2023-06-14T08:56:02;101696.72;;;21.05;100.00
22550;BME280;11441;57.164;-2.120;2023-06-14T08:58:31;101699.13;;;20.99;100.00
22550;BME280;11441;57.164;-2.120;2023-06-14T09:01:04;101695.94;;;21.01;100.00
22550;BME280;11441;57.164;-2.120;2023-06-14T09:03:31;101693.50;;;21.10;100.00
22550;BME280;11441;57.164;-2.120;2023-06-14T09:06:00;101693.50;;;21.10;100.00
22550;BME280;11441;57.164;-2.120;2023-06-14T09:08:28;101700.28;;;21.09;100.00
22550;BME280;11441;57.164;-2.120;2023-06-14T09:10:58;101692.72;;;21.06;100.00
22550;BME280;11441;57.164;-2.120;2023-06-14T09:13:26;101697.50;;;21.09;100.00
22550;BME280;11441;57.164;-2.120;2023-06-14T09:15:57;101696.28;;;21.14;100.00
22550;BME280;11441;57.164;-2.120;2023-06-14T09:18:57;101702.25;;;21.26;100.00
22550;BME280;11441;57.164;-2.120;2023-06-14T09:21:25;101692.59;;;21.38;100.00
22550;BME280;11441;57.164;-2.120;2023-06-14T09:23:52;101692.19;;;21.40;100.00
22550;BME280;11441;57.164;-2.120;2023-06-14T09:26:20;101696.56;;;21.55;100.00
22550;BME280;11441;57.164;-2.120;2023-06-14T09:28:50;101678.97;;;21.58;100.00
22550;BME280;11441;57.164;-2.120;2023-06-14T09:31:19;101699.28;;;21.73;100.00
22550;BME280;11441;57.164;-2.120;2023-06-14T09:33:48;101694.94;;;21.69;96.31
22550;BME280;11441;57.164;-2.120;2023-06-14T09:36:25;101692.44;;;21.81;95.52
22550;BME280;11441;57.164;-2.120;2023-06-14T09:38:57;101696.00;;;21.89;95.32
22550;BME280;11441;57.164;-2.120;2023-06-14T09:41:34;101691.91;;;22.01;96.70
22550;BME280;11441;57.164;-2.120;2023-06-14T09:44:03;101693.13;;;22.03;95.60
22550;BME280;11441;57.164;-2.120;2023-06-14T09:46:35;101697.91;;;22.03;95.47
22550;BME280;11441;57.164;-2.120;2023-06-14T09:49:04;101697.13;;;22.02;95.02
22550;BME280;11441;57.164;-2.120;2023-06-14T09:51:33;101694.28;;;22.06;94.58
22550;BME280;11441;57.164;-2.120;2023-06-14T09:54:03;101701.09;;;22.09;99.41
22550;BME280;11441;57.164;-2.120;2023-06-14T09:56:45;101700.66;;;22.14;100.00
22550;BME280;11441;57.164;-2.120;2023-06-14T09:59:16;101704.22;;;22.18;100.00
22550;BME280;11441;57.164;-2.120;2023-06-14T10:01:46;101706.31;;;22.10;100.00
22550;BME280;11441;57.164;-2.120;2023-06-14T10:04:15;101698.16;;;22.27;100.00
22550;BME280;11441;57.164;-2.120;2023-06-14T10:06:45;101698.47;;;22.39;95.60
22550;BME280;11441;57.164;-2.120;2023-06-14T10:09:12;101701.28;;;22.39;97.75
22550;BME280;11441;57.164;-2.120;2023-06-14T10:11:41;101695.69;;;22.39;98.99
22550;BME280;11441;57.164;-2.120;2023-06-14T10:14:12;101704.00;;;22.54;100.00
22550;BME280;11441;57.164;-2.120;2023-06-14T10:17:01;101708.00;;;22.53;97.88
22550;BME280;11441;57.164;-2.120;2023-06-14T10:20:28;101701.97;;;22.54;100.00
22550;BME280;11441;57.164;-2.120;2023-06-14T10:23:12;101716.78;;;22.58;97.09
22550;BME280;11441;57.164;-2.120;2023-06-14T10:25:42;101714.38;;;22.57;93.33
22550;BME280;11441;57.164;-2.120;2023-06-14T10:30:39;101714.44;;;22.50;90.22
22550;BME280;11441;57.164;-2.120;2023-06-14T10:33:06;101712.34;;;22.61;88.02
22550;BME280;11441;57.164;-2.120;2023-06-14T10:35:34;101710.19;;;22.76;84.35
22550;BME280;11441;57.164;-2.120;2023-06-14T10:38:30;101711.84;;;22.73;84.05
22550;BME280;11441;57.164;-2.120;2023-06-14T10:40:57;101712.13;;;22.86;85.07
22550;BME280;11441;57.164;-2.120;2023-06-14T10:43:24;101712.25;;;22.72;85.38
22550;BME280;11441;57.164;-2.120;2023-06-14T10:46:18;101712.56;;;22.81;86.16
22550;BME280;11441;57.164;-2.120;2023-06-14T10:48:45;101711.81;;;22.77;86.35
22550;BME280;11441;57.164;-2.120;2023-06-14T10:51:50;101715.75;;;22.83;87.16
22550;BME280;11441;57.164;-2.120;2023-06-14T10:54:21;101703.31;;;22.84;87.97
22550;BME280;11441;57.164;-2.120;2023-06-14T10:56:52;101705.22;;;22.94;87.05
22550;BME280;11441;57.164;-2.120;2023-06-14T10:59:20;101712.81;;;22.97;84.05
22550;BME280;11441;57.164;-2.120;2023-06-14T11:04:52;101709.91;;;23.08;82.89
22550;BME280;11441;57.164;-2.120;2023-06-14T11:10:44;101705.84;;;23.17;83.65
22550;BME280;11441;57.164;-2.120;2023-06-14T11:13:16;101716.28;;;23.12;78.78
22550;BME280;11441;57.164;-2.120;2023-06-14T11:15:44;101714.34;;;23.06;77.65
22550;BME280;11441;57.164;-2.120;2023-06-14T11:18:13;101720.28;;;23.15;76.90
22550;BME280;11441;57.164;-2.120;2023-06-14T11:20:40;101709.91;;;23.08;74.24
22550;BME280;11441;57.164;-2.120;2023-06-14T11:23:26;101715.50;;;23.12;74.25
22550;BME280;11441;57.164;-2.120;2023-06-14T11:25:53;101704.63;;;23.14;72.21
22550;BME280;11441;57.164;-2.120;2023-06-14T11:28:21;101709.44;;;23.17;72.02
22550;BME280;11441;57.164;-2.120;2023-06-14T11:31:00;101710.09;;;22.87;69.20
22550;BME280;11441;57.164;-2.120;2023-06-14T11:33:27;101711.31;;;22.86;70.95
22550;BME280;11441;57.164;-2.120;2023-06-14T11:35:54;101709.16;;;23.04;69.60
22550;BME280;11441;57.164;-2.120;2023-06-14T11:38:21;101710.75;;;23.05;72.35
22550;BME280;11441;57.164;-2.120;2023-06-14T11:41:07;101705.34;;;23.25;72.46
22550;BME280;11441;57.164;-2.120;2023-06-14T11:43:34;101708.38;;;23.38;69.87
22550;BME280;11441;57.164;-2.120;2023-06-14T11:46:01;101701.88;;;23.45;69.60
22550;BME280;11441;57.164;-2.120;2023-06-14T11:48:42;101706.34;;;23.39;66.96
22550;BME280;11441;57.164;-2.120;2023-06-14T11:51:09;101705.63;;;23.34;64.96
22550;BME280;11441;57.164;-2.120;2023-06-14T11:53:36;101705.69;;;23.27;62.33
22550;BME280;11441;57.164;-2.120;2023-06-14T11:56:04;101701.16;;;23.37;63.52
22550;BME280;11441;57.164;-2.120;2023-06-14T11:58:31;101706.00;;;23.37;62.52
22550;BME280;11441;57.164;-2.120;2023-06-14T12:00:58;101708.97;;;23.22;62.05
22550;BME280;11441;57.164;-2.120;2023-06-14T12:03:26;101702.56;;;23.18;62.49
22550;BME280;11441;57.164;-2.120;2023-06-14T12:06:06;101707.31;;;23.25;59.54
22550;BME280;11441;57.164;-2.120;2023-06-14T12:08:55;101706.78;;;23.37;61.38
22550;BME280;11441;57.164;-2.120;2023-06-14T12:11:22;101712.66;;;23.50;59.87
22550;BME280;11441;57.164;-2.120;2023-06-14T12:13:49;101705.66;;;23.65;59.13
22550;BME280;11441;57.164;-2.120;2023-06-14T12:16:16;101700.50;;;23.60;59.11
22550;BME280;11441;57.164;-2.120;2023-06-14T12:19:07;101702.47;;;23.60;57.97
22550;BME280;11441;57.164;-2.120;2023-06-14T12:21:55;101705.91;;;23.75;57.63
22550;BME280;11441;57.164;-2.120;2023-06-14T12:24:28;101697.53;;;23.71;57.69
22550;BME280;11441;57.164;-2.120;2023-06-14T12:26:59;101704.78;;;23.68;58.07
22550;BME280;11441;57.164;-2.120;2023-06-14T12:29:26;101704.22;;;23.81;59.06
22550;BME280;11441;57.164;-2.120;2023-06-14T12:31:53;101705.84;;;23.82;59.06
22550;BME280;11441;57.164;-2.120;2023-06-14T12:34:23;101711.84;;;23.80;55.97
22550;BME280;11441;57.164;-2.120;2023-06-14T12:36:51;101711.91;;;23.77;55.87
22550;BME280;11441;57.164;-2.120;2023-06-14T12:39:18;101710.94;;;23.90;56.70
22550;BME280;11441;57.164;-2.120;2023-06-14T12:41:45;101712.31;;;23.75;54.73
22550;BME280;11441;57.164;-2.120;2023-06-14T12:44:12;101708.97;;;23.87;54.80
22550;BME280;11441;57.164;-2.120;2023-06-14T12:46:41;101709.97;;;23.70;54.52
22550;BME280;11441;57.164;-2.120;2023-06-14T12:49:10;101709.94;;;23.73;53.71
22550;BME280;11441;57.164;-2.120;2023-06-14T12:51:38;101705.22;;;23.67;54.07
22550;BME280;11441;57.164;-2.120;2023-06-14T12:54:05;101711.41;;;23.85;53.82
22550;BME280;11441;57.164;-2.120;2023-06-14T12:56:32;101709.69;;;23.95;54.15
22550;BME280;11441;57.164;-2.120;2023-06-14T12:58:59;101721.56;;;24.06;53.16
22550;BME280;11441;57.164;-2.120;2023-06-14T13:01:26;101719.69;;;23.96;51.43
22550;BME280;11441;57.164;-2.120;2023-06-14T13:03:53;101724.34;;;23.79;51.92
22550;BME280;11441;57.164;-2.120;2023-06-14T13:06:21;101721.88;;;23.85;51.01